createdAt,value
2023-02-19T00:00:29.254Z,4.8583
2023-02-19T00:05:31.761Z,4.89006
2023-02-19T00:10:33.406Z,3.71598
2023-02-19T00:15:35.114Z,3.09829
2023-02-19T00:20:36.818Z,3.0008
2023-02-19T00:25:38.411Z,2.43901
2023-02-19T00:30:40.008Z,2.08143
2023-02-19T00:35:41.727Z,2.39519
2023-02-19T00:40:43.328Z,2.37931
2023-02-19T00:45:46.033Z,2.88711
2023-02-19T00:50:47.627Z,2.75563
2023-02-19T00:55:49.216Z,2.94141
2023-02-19T01:00:51.057Z,3.53559
2023-02-19T01:05:52.783Z,3.15419
2023-02-19T01:10:55.801Z,2.58605
2023-02-19T01:15:57.925Z,1.85659
2023-02-19T01:20:59.495Z,1.65684
2023-02-19T01:26:01.146Z,1.78673
2023-02-19T01:31:02.808Z,1.94837
2023-02-19T01:36:04.476Z,1.25543
2023-02-19T01:41:06.136Z,2.00521
2023-02-19T01:46:07.856Z,1.8585
2023-02-19T01:51:09.887Z,1.44185
2023-02-19T01:56:11.833Z,0.4142
2023-02-19T02:01:13.775Z,0.34402
2023-02-19T02:06:15.581Z,0.61427
2023-02-19T02:11:17.198Z,0.52091
2023-02-19T02:16:18.938Z,1.10205
2023-02-19T02:21:21.762Z,-0.05515
2023-02-19T02:26:24.261Z,0.76067
2023-02-19T02:31:26.035Z,0.39737
2023-02-19T02:36:27.704Z,0.26971
2023-02-19T02:41:29.392Z,0.64126
2023-02-19T02:46:31.017Z,0.56092
2023-02-19T02:51:32.734Z,-0.15201
2023-02-19T02:56:34.340Z,0.32624
2023-02-19T03:01:36.186Z,0.22462
2023-02-19T03:06:37.857Z,-0.5207
2023-02-19T03:11:39.459Z,-0.46163
2023-02-19T03:16:42.797Z,-0.49117
2023-02-19T03:21:44.730Z,0.02487
2023-02-19T03:26:46.329Z,-0.61057
2023-02-19T03:31:48.075Z,-0.20314
2023-02-19T03:36:50.049Z,0.59585
2023-02-19T03:41:51.733Z,-0.74426
2023-02-19T03:46:53.350Z,-0.76585
2023-02-19T03:51:55.063Z,-0.06849
2023-02-19T03:56:56.672Z,0.47708
2023-02-19T04:01:58.430Z,0.70605
2023-02-19T04:07:00.154Z,0.08457
2023-02-19T04:12:02.086Z,0.3761
2023-02-19T04:17:03.890Z,-0.13391
2023-02-19T04:22:05.600Z,0.25765
2023-02-19T04:27:07.422Z,-0.77633
2023-02-19T04:32:09.121Z,-0.68202
2023-02-19T04:37:10.802Z,0.04805
2023-02-19T04:42:12.542Z,0.33989
2023-02-19T04:47:14.171Z,0.29512
2023-02-19T04:52:15.762Z,0.66254
2023-02-19T04:57:17.368Z,0.59013
2023-02-19T05:02:19.679Z,0.94612
2023-02-19T05:07:21.508Z,1.12206
2023-02-19T05:12:23.152Z,0.72605
2023-02-19T05:17:25.439Z,0.4539
2023-02-19T05:22:27.166Z,0.78575
2023-02-19T05:27:28.880Z,0.89817
2023-02-19T05:32:30.534Z,0.6473
2023-02-19T05:37:32.164Z,0.15984
2023-02-19T05:42:33.763Z,-0.07992
2023-02-19T05:47:35.416Z,0.30655
2023-02-19T05:52:37.069Z,-0.80682
2023-02-19T05:57:38.921Z,-0.43146
2023-02-19T06:02:40.614Z,0.264
2023-02-19T06:07:42.536Z,0.64666
2023-02-19T06:12:44.290Z,0.56791
2023-02-19T06:17:45.889Z,0.20461
2023-02-19T06:22:47.627Z,0.54822
2023-02-19T06:27:49.224Z,-0.15201
2023-02-19T06:32:50.881Z,0.27829
2023-02-19T06:37:52.661Z,0.6076
2023-02-19T06:42:54.318Z,0.30306
2023-02-19T06:47:55.972Z,-0.05928
2023-02-19T06:52:57.695Z,-0.29491
2023-02-19T06:57:59.339Z,-1.01006
2023-02-19T07:03:01.048Z,-1.3889
2023-02-19T07:08:02.646Z,-0.77157
2023-02-19T07:13:04.352Z,-0.16535
2023-02-19T07:18:05.973Z,-0.14693
2023-02-19T07:23:07.840Z,-0.4991
2023-02-19T07:28:09.618Z,0.03694
2023-02-19T07:33:11.333Z,0.00296
2023-02-19T07:38:12.940Z,0.20017
2023-02-19T07:43:14.648Z,0.20429
2023-02-19T07:48:16.397Z,0.09156
2023-02-19T07:53:18.373Z,-0.85033
2023-02-19T07:58:20.110Z,-0.53499
2023-02-19T08:03:22.018Z,-0.11359
2023-02-19T08:08:23.683Z,-0.73156
2023-02-19T08:13:25.704Z,-0.15677
2023-02-19T08:18:27.379Z,0.19032
2023-02-19T08:23:29.185Z,-0.44957
2023-02-19T08:28:30.795Z,-0.0469
2023-02-19T08:33:32.530Z,-0.42448
2023-02-19T08:38:34.272Z,-0.24601
2023-02-19T08:43:35.920Z,0.08648
2023-02-19T08:48:37.530Z,-0.14439
2023-02-19T08:53:39.298Z,-0.15169
2023-02-19T08:58:41.025Z,-0.51244
2023-02-19T09:03:42.726Z,-0.33111
2023-02-19T09:08:44.445Z,-0.09136
2023-02-19T09:13:46.161Z,-0.25681
2023-02-19T09:18:47.874Z,-0.86176
2023-02-19T09:23:49.493Z,0.0363
2023-02-19T09:28:51.161Z,0.13634
2023-02-19T09:33:52.846Z,0.16111
2023-02-19T09:38:54.701Z,-0.13105
2023-02-19T09:43:56.382Z,-0.1644
2023-02-19T09:48:58.058Z,0.12554
2023-02-19T09:53:59.709Z,-0.25585
2023-02-19T09:59:01.368Z,-0.88589
2023-02-19T10:04:03.092Z,-0.0434
2023-02-19T10:09:04.729Z,-0.28539
2023-02-19T10:14:06.415Z,-0.05706
2023-02-19T10:19:08.073Z,-0.77284
2023-02-19T10:24:09.740Z,-0.36192
2023-02-19T10:29:11.398Z,-0.90749
2023-02-19T10:34:13.020Z,-0.28602
2023-02-19T10:39:14.672Z,-0.19298
2023-02-19T10:44:16.427Z,-0.3508
2023-02-19T10:49:18.160Z,-0.75252
2023-02-19T10:54:19.788Z,-0.72076
2023-02-19T10:59:21.408Z,-0.05579
2023-02-19T11:04:23.256Z,-0.66773
2023-02-19T11:09:24.891Z,-0.38923
2023-02-19T11:14:26.556Z,-0.37303
2023-02-19T11:19:28.235Z,-0.36192
2023-02-19T11:24:29.894Z,-1.23552
2023-02-19T11:29:31.686Z,-1.50132
2023-02-19T11:34:33.409Z,-2.21455
2023-02-19T11:39:35.020Z,-2.28219
2023-02-19T11:44:36.873Z,-2.19264
2023-02-19T11:49:38.792Z,-2.10277
2023-02-19T11:54:40.529Z,-1.7071
2023-02-19T11:59:42.306Z,-1.31047
2023-02-19T12:04:43.944Z,-0.18885
2023-02-19T12:09:45.829Z,-0.39399
2023-02-19T12:14:47.656Z,-0.13867
2023-02-19T12:19:49.305Z,-0.77602
2023-02-19T12:24:51.072Z,-0.39177
2023-02-19T12:29:52.871Z,-0.52197
2023-02-19T12:34:54.594Z,-0.47211
2023-02-19T12:39:56.251Z,-0.64486
2023-02-19T12:44:57.978Z,-0.4213
2023-02-19T12:49:59.699Z,-0.55214
2023-02-19T12:55:01.403Z,-0.82143
2023-02-19T13:00:03.412Z,-0.89161
2023-02-19T13:05:05.204Z,-0.64201
2023-02-19T13:10:06.869Z,-0.5461
2023-02-19T13:15:08.706Z,-0.82968
2023-02-19T13:20:10.447Z,-0.51911
2023-02-19T13:25:12.147Z,-0.86747
2023-02-19T13:30:13.866Z,-1.03038
2023-02-19T13:35:15.494Z,-0.94559
2023-02-19T13:40:17.217Z,-1.10151
2023-02-19T13:45:18.990Z,-1.12438
2023-02-19T13:50:20.625Z,-0.80777
2023-02-19T13:55:22.440Z,-0.42162
2023-02-19T14:00:24.122Z,-1.00339
2023-02-19T14:05:25.747Z,-0.70298
2023-02-19T14:10:27.462Z,-0.5261
2023-02-19T14:15:29.310Z,-0.95131
2023-02-19T14:20:31.088Z,-0.96274
2023-02-19T14:25:32.808Z,-0.48735
2023-02-19T14:30:34.592Z,-0.42448
2023-02-19T14:35:36.341Z,-1.22187
2023-02-19T14:40:38.096Z,-0.88208
2023-02-19T14:45:39.932Z,-0.91924
2023-02-19T14:50:41.588Z,-1.03483
2023-02-19T14:55:43.531Z,-0.67599
2023-02-19T15:00:45.224Z,-0.63947
2023-02-19T15:05:47.110Z,-0.95417
2023-02-19T15:10:48.779Z,-0.95004
2023-02-19T15:15:50.624Z,-0.64518
2023-02-19T15:20:52.277Z,-0.37653
2023-02-19T15:25:53.925Z,-0.65757
2023-02-19T15:30:55.673Z,-0.58802
2023-02-19T15:35:57.348Z,-0.10533
2023-02-19T15:40:59.040Z,0.01693
2023-02-19T15:46:00.776Z,-0.02499
2023-02-19T15:51:02.389Z,0.0833
2023-02-19T15:56:04.002Z,-0.17742
2023-02-19T16:01:05.684Z,0.23478
2023-02-19T16:06:07.338Z,0.48407
2023-02-19T16:11:09.052Z,0.5498
2023-02-19T16:16:10.895Z,0.37038
2023-02-19T16:21:13.045Z,0.73621
2023-02-19T16:26:14.918Z,0.8083
2023-02-19T16:31:16.963Z,1.02202
2023-02-19T16:36:18.724Z,1.1138
2023-02-19T16:41:20.384Z,1.14492
2023-02-19T16:46:22.099Z,1.68828
2023-02-19T16:51:23.759Z,1.52695
2023-02-19T16:56:25.733Z,1.56379
2023-02-19T17:01:27.537Z,1.74862
2023-02-19T17:06:29.165Z,1.65112
2023-02-19T17:11:30.866Z,1.54728
2023-02-19T17:16:32.641Z,1.85754
2023-02-19T17:21:34.253Z,1.6308
2023-02-19T17:26:35.901Z,1.94932
2023-02-19T17:31:37.881Z,2.3304
2023-02-19T17:36:39.687Z,1.79308
2023-02-19T17:41:41.422Z,1.92741
2023-02-19T17:46:43.184Z,1.96742
2023-02-19T17:51:44.860Z,2.05571
2023-02-19T17:56:46.591Z,2.23132
2023-02-19T18:01:48.419Z,2.07285
2023-02-19T18:06:50.048Z,1.45074
2023-02-19T18:11:51.694Z,0.9258
2023-02-19T18:16:53.569Z,1.12809
2023-02-19T18:21:55.270Z,1.45137
2023-02-19T18:26:56.907Z,1.74163
2023-02-19T18:31:58.972Z,2.31516
2023-02-19T18:37:01.678Z,2.67656
2023-02-19T18:42:03.367Z,2.45743
2023-02-19T18:47:05.044Z,1.92804
2023-02-19T18:52:06.841Z,1.80006
2023-02-19T18:57:08.553Z,2.03157
2023-02-19T19:02:10.392Z,2.08429
2023-02-19T19:07:12.141Z,2.02395
2023-02-19T19:12:13.755Z,3.16022
2023-02-19T19:17:15.736Z,2.55906
2023-02-19T19:22:17.640Z,2.57303
2023-02-19T19:27:19.387Z,2.71943
2023-02-19T19:32:21.641Z,3.14148
2023-02-19T19:37:23.389Z,3.72042
2023-02-19T19:42:25.047Z,3.53559
2023-02-19T19:47:26.829Z,3.40983
2023-02-19T19:52:28.487Z,3.4743
2023-02-19T19:57:30.259Z,3.73598
2023-02-19T20:02:32.331Z,3.5375
2023-02-19T20:07:34.023Z,3.76202
2023-02-19T20:12:35.697Z,3.7833
2023-02-19T20:17:37.397Z,3.99798
2023-02-19T20:22:39.083Z,4.12311
2023-02-19T20:27:40.686Z,4.42004
2023-02-19T20:32:42.448Z,4.34922
2023-02-19T20:37:44.045Z,3.90906
2023-02-19T20:42:45.662Z,4.07865
2023-02-19T20:47:47.707Z,4.19488
2023-02-19T20:52:49.395Z,3.94399
2023-02-19T20:57:51.034Z,4.18567
2023-02-19T21:02:52.945Z,4.40766
2023-02-19T21:07:54.778Z,4.56073
2023-02-19T21:12:57.165Z,4.57724
2023-02-19T21:17:58.885Z,4.51754
2023-02-19T21:23:00.762Z,5.25401
2023-02-19T21:28:02.452Z,4.87005
2023-02-19T21:33:04.154Z,4.56645
2023-02-19T21:38:05.851Z,4.36478
2023-02-19T21:43:07.618Z,4.47244
2023-02-19T21:48:09.433Z,4.38035
2023-02-19T21:53:11.191Z,4.4626
2023-02-19T21:58:12.858Z,4.32826
2023-02-19T22:03:14.725Z,4.69538
2023-02-19T22:08:16.425Z,4.0688
2023-02-19T22:13:18.121Z,4.3416
2023-02-19T22:18:19.945Z,4.04181
2023-02-19T22:23:21.672Z,3.88334
2023-02-19T22:28:23.361Z,4.07674
2023-02-19T22:33:25.212Z,3.89414
2023-02-19T22:38:26.839Z,3.9062
2023-02-19T22:43:28.531Z,3.90652
2023-02-19T22:48:30.537Z,3.95384
2023-02-19T22:53:32.198Z,4.01291
2023-02-19T22:58:33.868Z,4.08373
2023-02-19T23:03:35.618Z,4.11358
2023-02-19T23:08:37.345Z,4.18599
2023-02-19T23:13:38.993Z,4.14788
2023-02-19T23:18:40.781Z,4.36193
2023-02-19T23:23:42.464Z,4.41528
2023-02-19T23:28:44.101Z,4.23585
2023-02-19T23:33:45.800Z,4.22886
2023-02-19T23:38:47.474Z,4.56994
2023-02-19T23:43:49.072Z,4.78875
2023-02-19T23:48:50.751Z,4.75953
2023-02-19T23:53:52.475Z,4.25649
2023-02-19T23:58:54.202Z,4.75287
